sensor_id;sensor_type;location;lat;lon;timestamp;pressure;altitude;pressure_sealevel;temperature;humidity
51261;BME280;61705;46.228;24.812;2023-03-15T00:01:59;96279.63;;;4.40;61.92
51261;BME280;61705;46.228;24.812;2023-03-15T00:04:27;96272.75;;;4.37;61.92
51261;BME280;61705;46.228;24.812;2023-03-15T00:06:54;96269.16;;;4.40;61.80
51261;BME280;61705;46.228;24.812;2023-03-15T00:09:26;96276.66;;;4.47;61.67
51261;BME280;61705;46.228;24.812;2023-03-15T00:11:56;96269.31;;;4.37;62.11
51261;BME280;61705;46.228;24.812;2023-03-15T00:14:25;96267.75;;;4.33;62.34
51261;BME280;61705;46.228;24.812;2023-03-15T00:16:54;96268.31;;;4.39;62.15
51261;BME280;61705;46.228;24.812;2023-03-15T00:19:20;96269.03;;;4.43;62.03
51261;BME280;61705;46.228;24.812;2023-03-15T00:21:52;96262.88;;;4.44;61.98
51261;BME280;61705;46.228;24.812;2023-03-15T00:24:18;96265.50;;;4.44;62.32
51261;BME280;61705;46.228;24.812;2023-03-15T00:26:45;96266.94;;;4.31;63.18
51261;BME280;61705;46.228;24.812;2023-03-15T00:29:11;96256.91;;;4.21;63.19
51261;BME280;61705;46.228;24.812;2023-03-15T00:31:38;96257.88;;;4.19;63.66
51261;BME280;61705;46.228;24.812;2023-03-15T00:34:05;96255.47;;;4.14;63.29
51261;BME280;61705;46.228;24.812;2023-03-15T00:36:31;96260.28;;;4.03;63.79
51261;BME280;61705;46.228;24.812;2023-03-15T00:38:58;96254.34;;;3.99;64.33
51261;BME280;61705;46.228;24.812;2023-03-15T00:41:25;96249.19;;;3.98;64.63
51261;BME280;61705;46.228;24.812;2023-03-15T00:43:53;96253.44;;;4.00;64.75
51261;BME280;61705;46.228;24.812;2023-03-15T00:46:24;96253.56;;;3.97;64.75
51261;BME280;61705;46.228;24.812;2023-03-15T00:48:51;96247.16;;;4.04;64.11
51261;BME280;61705;46.228;24.812;2023-03-15T00:51:20;96249.53;;;3.90;64.47
51261;BME280;61705;46.228;24.812;2023-03-15T00:53:48;96244.34;;;3.89;64.35
51261;BME280;61705;46.228;24.812;2023-03-15T00:56:22;96253.34;;;3.82;64.40
51261;BME280;61705;46.228;24.812;2023-03-15T00:58:50;96251.53;;;3.63;65.14
51261;BME280;61705;46.228;24.812;2023-03-15T01:01:23;96250.97;;;3.55;65.64
51261;BME280;61705;46.228;24.812;2023-03-15T01:03:55;96248.56;;;3.50;65.95
51261;BME280;61705;46.228;24.812;2023-03-15T01:06:28;96244.19;;;3.51;65.97
51261;BME280;61705;46.228;24.812;2023-03-15T01:08:55;96242.16;;;3.58;65.43
51261;BME280;61705;46.228;24.812;2023-03-15T01:11:28;96237.16;;;3.73;64.76
51261;BME280;61705;46.228;24.812;2023-03-15T01:13:57;96229.34;;;3.73;65.14
51261;BME280;61705;46.228;24.812;2023-03-15T01:16:27;96234.44;;;3.76;65.16
51261;BME280;61705;46.228;24.812;2023-03-15T01:18:54;96229.63;;;3.66;65.60
51261;BME280;61705;46.228;24.812;2023-03-15T01:21:22;96227.59;;;3.72;65.24
51261;BME280;61705;46.228;24.812;2023-03-15T01:23:49;96224.88;;;3.75;64.87
51261;BME280;61705;46.228;24.812;2023-03-15T01:26:16;96223.03;;;3.57;65.50
51261;BME280;61705;46.228;24.812;2023-03-15T01:28:43;96214.13;;;3.41;66.14
51261;BME280;61705;46.228;24.812;2023-03-15T01:31:20;96225.91;;;3.51;65.52
51261;BME280;61705;46.228;24.812;2023-03-15T01:33:51;96227.28;;;3.60;65.13
51261;BME280;61705;46.228;24.812;2023-03-15T01:36:18;96225.06;;;3.50;65.43
51261;BME280;61705;46.228;24.812;2023-03-15T01:38:45;96224.03;;;3.32;66.32
51261;BME280;61705;46.228;24.812;2023-03-15T01:41:13;96225.97;;;3.27;66.47
51261;BME280;61705;46.228;24.812;2023-03-15T01:43:46;96222.31;;;3.31;65.82
51261;BME280;61705;46.228;24.812;2023-03-15T01:51:34;96210.91;;;3.34;65.85
51261;BME280;61705;46.228;24.812;2023-03-15T01:56:41;96209.34;;;3.30;65.36
51261;BME280;61705;46.228;24.812;2023-03-15T01:59:21;96206.41;;;3.38;64.93
51261;BME280;61705;46.228;24.812;2023-03-15T02:01:53;96206.53;;;3.35;64.78
51261;BME280;61705;46.228;24.812;2023-03-15T02:04:44;96211.16;;;3.28;65.01
51261;BME280;61705;46.228;24.812;2023-03-15T02:07:13;96198.13;;;3.06;65.86
51261;BME280;61705;46.228;24.812;2023-03-15T02:09:50;96196.66;;;2.99;66.28
51261;BME280;61705;46.228;24.812;2023-03-15T02:12:20;96196.00;;;2.94;66.64
51261;BME280;61705;46.228;24.812;2023-03-15T02:14:49;96200.56;;;2.89;67.23
51261;BME280;61705;46.228;24.812;2023-03-15T02:17:21;96192.84;;;2.85;67.34
51261;BME280;61705;46.228;24.812;2023-03-15T02:19:56;96200.06;;;2.79;67.93
51261;BME280;61705;46.228;24.812;2023-03-15T02:22:31;96199.72;;;2.88;67.73
51261;BME280;61705;46.228;24.812;2023-03-15T02:25:20;96192.75;;;2.87;67.72
51261;BME280;61705;46.228;24.812;2023-03-15T02:27:57;96187.94;;;2.78;67.75
51261;BME280;61705;46.228;24.812;2023-03-15T02:30:24;96193.31;;;2.73;68.18
51261;BME280;61705;46.228;24.812;2023-03-15T02:32:51;96189.44;;;2.83;67.20
51261;BME280;61705;46.228;24.812;2023-03-15T02:35:23;96189.16;;;2.91;67.03
51261;BME280;61705;46.228;24.812;2023-03-15T02:37:52;96178.66;;;2.93;66.59
51261;BME280;61705;46.228;24.812;2023-03-15T02:40:22;96183.00;;;2.92;67.10
51261;BME280;61705;46.228;24.812;2023-03-15T02:42:56;96178.81;;;2.66;68.50
51261;BME280;61705;46.228;24.812;2023-03-15T02:45:27;96178.47;;;2.52;68.73
51261;BME280;61705;46.228;24.812;2023-03-15T02:47:59;96176.88;;;2.26;70.25
51261;BME280;61705;46.228;24.812;2023-03-15T02:50:27;96178.84;;;2.19;70.50
51261;BME280;61705;46.228;24.812;2023-03-15T02:52:54;96182.34;;;2.18;70.73
51261;BME280;61705;46.228;24.812;2023-03-15T02:55:22;96181.72;;;2.35;70.64
51261;BME280;61705;46.228;24.812;2023-03-15T02:57:49;96172.31;;;2.31;69.77
51261;BME280;61705;46.228;24.812;2023-03-15T03:00:16;96182.22;;;2.21;70.33
51261;BME280;61705;46.228;24.812;2023-03-15T03:02:45;96169.81;;;2.04;71.66
51261;BME280;61705;46.228;24.812;2023-03-15T03:05:15;96168.41;;;1.96;72.31
51261;BME280;61705;46.228;24.812;2023-03-15T03:07:43;96171.25;;;2.13;70.61
51261;BME280;61705;46.228;24.812;2023-03-15T03:10:12;96168.47;;;2.18;70.52
51261;BME280;61705;46.228;24.812;2023-03-15T03:12:41;96166.59;;;2.21;70.16
51261;BME280;61705;46.228;24.812;2023-03-15T03:15:09;96165.84;;;1.94;71.42
51261;BME280;61705;46.228;24.812;2023-03-15T03:17:36;96168.44;;;1.94;71.08
51261;BME280;61705;46.228;24.812;2023-03-15T03:20:07;96173.59;;;1.71;72.28
51261;BME280;61705;46.228;24.812;2023-03-15T03:22:36;96163.34;;;1.68;72.86
51261;BME280;61705;46.228;24.812;2023-03-15T03:25:04;96163.34;;;1.68;72.08
51261;BME280;61705;46.228;24.812;2023-03-15T03:27:39;96155.44;;;1.69;73.56
51261;BME280;61705;46.228;24.812;2023-03-15T03:30:08;96162.34;;;1.70;73.69
51261;BME280;61705;46.228;24.812;2023-03-15T03:32:35;96161.88;;;1.84;72.40
51261;BME280;61705;46.228;24.812;2023-03-15T03:35:05;96156.41;;;1.92;71.52
51261;BME280;61705;46.228;24.812;2023-03-15T03:37:32;96149.53;;;1.89;72.05
51261;BME280;61705;46.228;24.812;2023-03-15T03:40:03;96156.34;;;1.93;71.31
51261;BME280;61705;46.228;24.812;2023-03-15T03:42:35;96155.22;;;2.00;70.82
51261;BME280;61705;46.228;24.812;2023-03-15T03:45:02;96157.78;;;2.02;70.55
51261;BME280;61705;46.228;24.812;2023-03-15T03:47:29;96148.91;;;1.82;71.77
51261;BME280;61705;46.228;24.812;2023-03-15T03:49:55;96153.47;;;1.76;71.69
51261;BME280;61705;46.228;24.812;2023-03-15T03:52:24;96151.31;;;1.88;71.26
51261;BME280;61705;46.228;24.812;2023-03-15T03:54:50;96157.31;;;1.65;72.50
51261;BME280;61705;46.228;24.812;2023-03-15T03:57:17;96147.38;;;1.52;73.04
51261;BME280;61705;46.228;24.812;2023-03-15T03:59:44;96146.63;;;1.48;73.00
51261;BME280;61705;46.228;24.812;2023-03-15T04:02:10;96141.47;;;1.47;74.23
51261;BME280;61705;46.228;24.812;2023-03-15T04:04:37;96142.19;;;1.52;73.21
51261;BME280;61705;46.228;24.812;2023-03-15T04:07:07;96135.22;;;1.52;73.57
51261;BME280;61705;46.228;24.812;2023-03-15T04:09:36;96132.88;;;1.45;73.68
51261;BME280;61705;46.228;24.812;2023-03-15T04:12:05;96135.41;;;1.46;73.27
51261;BME280;61705;46.228;24.812;2023-03-15T04:14:32;96131.97;;;1.46;73.53
51261;BME280;61705;46.228;24.812;2023-03-15T04:16:59;96128.53;;;1.45;73.10
51261;BME280;61705;46.228;24.812;2023-03-15T04:19:29;96125.09;;;1.43;73.21
51261;BME280;61705;46.228;24.812;2023-03-15T04:21:56;96124.16;;;1.46;73.13
51261;BME280;61705;46.228;24.812;2023-03-15T04:24:23;96119.66;;;1.51;72.45
51261;BME280;61705;46.228;24.812;2023-03-15T04:26:51;96130.28;;;1.45;73.20
51261;BME280;61705;46.228;24.812;2023-03-15T04:29:23;96128.53;;;1.45;72.78
51261;BME280;61705;46.228;24.812;2023-03-15T04:31:52;96129.47;;;1.42;73.01
51261;BME280;61705;46.228;24.812;2023-03-15T04:34:21;96125.97;;;1.43;73.08
51261;BME280;61705;46.228;24.812;2023-03-15T04:36:54;96134.63;;;1.44;72.81
51261;BME280;61705;46.228;24.812;2023-03-15T04:39:25;96136.25;;;1.47;72.66
51261;BME280;61705;46.228;24.812;2023-03-15T04:41:54;96133.16;;;1.37;73.33
51261;BME280;61705;46.228;24.812;2023-03-15T04:44:24;96138.09;;;1.45;72.89
51261;BME280;61705;46.228;24.812;2023-03-15T04:46:53;96141.88;;;1.61;72.33
51261;BME280;61705;46.228;24.812;2023-03-15T04:49:23;96134.94;;;1.60;72.15
51261;BME280;61705;46.228;24.812;2023-03-15T04:51:52;96136.59;;;1.62;71.76
51261;BME280;61705;46.228;24.812;2023-03-15T04:54:19;96136.69;;;1.59;72.01
51261;BME280;61705;46.228;24.812;2023-03-15T04:56:45;96129.63;;;1.63;71.87
51261;BME280;61705;46.228;24.812;2023-03-15T04:59:12;96131.44;;;1.61;71.53
51261;BME280;61705;46.228;24.812;2023-03-15T05:01:39;96133.16;;;1.62;71.42
51261;BME280;61705;46.228;24.812;2023-03-15T05:04:06;96121.59;;;1.69;71.04
51261;BME280;61705;46.228;24.812;2023-03-15T05:06:32;96121.72;;;1.66;71.23
51261;BME280;61705;46.228;24.812;2023-03-15T05:08:59;96123.66;;;1.61;71.42
51261;BME280;61705;46.228;24.812;2023-03-15T05:11:25;96122.66;;;1.63;71.37
51261;BME280;61705;46.228;24.812;2023-03-15T05:13:55;96130.47;;;1.63;71.21
51261;BME280;61705;46.228;24.812;2023-03-15T05:16:21;96129.34;;;1.71;71.29
51261;BME280;61705;46.228;24.812;2023-03-15T05:18:48;96138.13;;;1.68;71.16
51261;BME280;61705;46.228;24.812;2023-03-15T05:21:15;96134.91;;;1.61;71.55
51261;BME280;61705;46.228;24.812;2023-03-15T05:23:41;96135.69;;;1.63;71.36
51261;BME280;61705;46.228;24.812;2023-03-15T05:26:08;96146.19;;;1.60;71.50
51261;BME280;61705;46.228;24.812;2023-03-15T05:28:37;96136.16;;;1.75;71.01
51261;BME280;61705;46.228;24.812;2023-03-15T05:31:06;96132.53;;;1.79;71.55
51261;BME280;61705;46.228;24.812;2023-03-15T05:33:32;96140.47;;;1.76;71.62
51261;BME280;61705;46.228;24.812;2023-03-15T05:35:59;96141.31;;;1.76;71.59
51261;BME280;61705;46.228;24.812;2023-03-15T05:38:26;96129.75;;;1.83;71.19
51261;BME280;61705;46.228;24.812;2023-03-15T05:40:53;96131.66;;;2.03;70.60
51261;BME280;61705;46.228;24.812;2023-03-15T05:43:20;96125.72;;;2.23;70.10
51261;BME280;61705;46.228;24.812;2023-03-15T05:45:50;96122.19;;;2.24;69.95
51261;BME280;61705;46.228;24.812;2023-03-15T05:48:17;96117.69;;;2.28;69.62
51261;BME280;61705;46.228;24.812;2023-03-15T05:50:44;96125.69;;;2.47;69.21
51261;BME280;61705;46.228;24.812;2023-03-15T05:53:13;96133.13;;;2.56;68.82
51261;BME280;61705;46.228;24.812;2023-03-15T05:55:40;96129.56;;;2.58;68.50
51261;BME280;61705;46.228;24.812;2023-03-15T05:58:06;96123.31;;;2.63;68.43
51261;BME280;61705;46.228;24.812;2023-03-15T06:00:33;96139.22;;;2.78;68.02
51261;BME280;61705;46.228;24.812;2023-03-15T06:03:00;96134.47;;;2.66;68.16
51261;BME280;61705;46.228;24.812;2023-03-15T06:05:26;96138.19;;;2.82;68.08
51261;BME280;61705;46.228;24.812;2023-03-15T06:07:53;96129.94;;;2.71;67.66
51261;BME280;61705;46.228;24.812;2023-03-15T06:10:20;96130.53;;;2.78;67.86
51261;BME280;61705;46.228;24.812;2023-03-15T06:12:49;96124.91;;;2.89;67.74
51261;BME280;61705;46.228;24.812;2023-03-15T06:15:18;96133.53;;;3.11;67.12
51261;BME280;61705;46.228;24.812;2023-03-15T06:17:45;96126.63;;;3.10;66.53
51261;BME280;61705;46.228;24.812;2023-03-15T06:20:17;96127.44;;;3.12;66.42
51261;BME280;61705;46.228;24.812;2023-03-15T06:22:44;96125.22;;;3.23;66.10
51261;BME280;61705;46.228;24.812;2023-03-15T06:25:13;96132.22;;;3.43;65.68
51261;BME280;61705;46.228;24.812;2023-03-15T06:27:40;96136.91;;;3.55;65.02
51261;BME280;61705;46.228;24.812;2023-03-15T06:30:07;96131.38;;;3.63;64.61
51261;BME280;61705;46.228;24.812;2023-03-15T06:32:34;96137.81;;;3.75;64.16
51261;BME280;61705;46.228;24.812;2023-03-15T06:35:01;96133.50;;;3.94;63.74
51261;BME280;61705;46.228;24.812;2023-03-15T06:37:30;96138.47;;;4.19;63.22
51261;BME280;61705;46.228;24.812;2023-03-15T06:40:03;96131.06;;;4.29;62.10
51261;BME280;61705;46.228;24.812;2023-03-15T06:42:33;96128.59;;;4.26;61.36
51261;BME280;61705;46.228;24.812;2023-03-15T06:45:00;96122.50;;;4.44;60.62
51261;BME280;61705;46.228;24.812;2023-03-15T06:47:27;96122.16;;;4.52;60.26
51261;BME280;61705;46.228;24.812;2023-03-15T06:49:54;96132.69;;;4.69;59.83
51261;BME280;61705;46.228;24.812;2023-03-15T06:52:22;96128.63;;;4.81;59.82
51261;BME280;61705;46.228;24.812;2023-03-15T06:54:49;96129.13;;;4.89;59.36
51261;BME280;61705;46.228;24.812;2023-03-15T06:57:18;96132.03;;;4.83;59.64
51261;BME280;61705;46.228;24.812;2023-03-15T06:59:44;96124.72;;;4.90;59.44
51261;BME280;61705;46.228;24.812;2023-03-15T07:02:16;96122.69;;;5.14;59.25
51261;BME280;61705;46.228;24.812;2023-03-15T07:04:46;96111.84;;;5.39;58.44
51261;BME280;61705;46.228;24.812;2023-03-15T07:07:14;96105.91;;;5.53;58.15
51261;BME280;61705;46.228;24.812;2023-03-15T07:09:43;96103.38;;;5.68;57.93
51261;BME280;61705;46.228;24.812;2023-03-15T07:12:15;96101.34;;;5.74;56.90
51261;BME280;61705;46.228;24.812;2023-03-15T07:14:47;96108.56;;;5.86;57.15
51261;BME280;61705;46.228;24.812;2023-03-15T07:17:16;96111.72;;;6.10;56.71
51261;BME280;61705;46.228;24.812;2023-03-15T07:19:43;96115.69;;;6.17;56.74
51261;BME280;61705;46.228;24.812;2023-03-15T07:22:27;96108.41;;;6.22;56.42
51261;BME280;61705;46.228;24.812;2023-03-15T07:24:53;96102.84;;;6.28;56.48
51261;BME280;61705;46.228;24.812;2023-03-15T07:27:22;96104.72;;;6.42;56.44
51261;BME280;61705;46.228;24.812;2023-03-15T07:29:51;96105.69;;;6.57;55.78
51261;BME280;61705;46.228;24.812;2023-03-15T07:32:20;96100.94;;;6.63;55.62
51261;BME280;61705;46.228;24.812;2023-03-15T07:34:47;96106.72;;;6.70;55.39
51261;BME280;61705;46.228;24.812;2023-03-15T07:37:14;96099.31;;;6.93;54.68
51261;BME280;61705;46.228;24.812;2023-03-15T07:39:42;96102.59;;;7.12;53.85
51261;BME280;61705;46.228;24.812;2023-03-15T07:42:12;96108.75;;;7.27;53.49
51261;BME280;61705;46.228;24.812;2023-03-15T07:44:38;96110.25;;;7.31;52.45
51261;BME280;61705;46.228;24.812;2023-03-15T07:47:05;96105.41;;;7.39;52.97
51261;BME280;61705;46.228;24.812;2023-03-15T07:49:32;96102.97;;;7.36;54.05
51261;BME280;61705;46.228;24.812;2023-03-15T07:52:00;96112.38;;;7.54;53.87
51261;BME280;61705;46.228;24.812;2023-03-15T07:54:31;96098.44;;;7.68;53.55
51261;BME280;61705;46.228;24.812;2023-03-15T07:56:59;96098.53;;;7.67;53.08
51261;BME280;61705;46.228;24.812;2023-03-15T07:59:31;96106.94;;;7.88;53.00
51261;BME280;61705;46.228;24.812;2023-03-15T08:01:57;96108.16;;;8.11;53.06
51261;BME280;61705;46.228;24.812;2023-03-15T08:04:28;96099.16;;;8.43;52.02
51261;BME280;61705;46.228;24.812;2023-03-15T08:06:54;96096.13;;;8.64;51.10
51261;BME280;61705;46.228;24.812;2023-03-15T08:09:21;96096.72;;;8.82;50.33
51261;BME280;61705;46.228;24.812;2023-03-15T08:11:47;96098.34;;;8.84;50.01
51261;BME280;61705;46.228;24.812;2023-03-15T08:14:14;96092.44;;;9.08;49.53
51261;BME280;61705;46.228;24.812;2023-03-15T08:16:41;96095.97;;;9.21;49.29
51261;BME280;61705;46.228;24.812;2023-03-15T08:19:07;96101.34;;;9.32;48.51
51261;BME280;61705;46.228;24.812;2023-03-15T08:21:34;96106.78;;;9.56;48.02
51261;BME280;61705;46.228;24.812;2023-03-15T08:24:01;96106.50;;;9.73;47.41
51261;BME280;61705;46.228;24.812;2023-03-15T08:26:27;96105.16;;;9.68;45.77
51261;BME280;61705;46.228;24.812;2023-03-15T08:28:54;96104.84;;;9.98;45.49
51261;BME280;61705;46.228;24.812;2023-03-15T08:31:20;96101.56;;;10.07;44.74
51261;BME280;61705;46.228;24.812;2023-03-15T08:33:47;96098.34;;;10.29;44.66
51261;BME280;61705;46.228;24.812;2023-03-15T08:36:16;96104.34;;;10.44;44.08
51261;BME280;61705;46.228;24.812;2023-03-15T08:38:43;96098.19;;;10.56;42.91
51261;BME280;61705;46.228;24.812;2023-03-15T08:41:09;96097.03;;;10.48;41.94
51261;BME280;61705;46.228;24.812;2023-03-15T08:43:39;96100.84;;;10.43;41.02
51261;BME280;61705;46.228;24.812;2023-03-15T08:46:06;96102.19;;;10.62;39.74
51261;BME280;61705;46.228;24.812;2023-03-15T08:48:32;96099.34;;;10.65;39.17
51261;BME280;61705;46.228;24.812;2023-03-15T08:51:01;96104.84;;;10.49;39.46
51261;BME280;61705;46.228;24.812;2023-03-15T08:53:31;96101.81;;;10.79;39.89
51261;BME280;61705;46.228;24.812;2023-03-15T08:56:00;96110.84;;;11.01;39.40
51261;BME280;61705;46.228;24.812;2023-03-15T08:58:27;96112.88;;;10.97;39.02
51261;BME280;61705;46.228;24.812;2023-03-15T09:00:56;96112.94;;;11.08;39.35
51261;BME280;61705;46.228;24.812;2023-03-15T09:03:22;96114.19;;;11.15;39.49
51261;BME280;61705;46.228;24.812;2023-03-15T09:05:49;96113.81;;;11.33;38.80
51261;BME280;61705;46.228;24.812;2023-03-15T09:08:16;96119.09;;;11.33;37.89
51261;BME280;61705;46.228;24.812;2023-03-15T09:10:53;96116.31;;;11.58;37.86
51261;BME280;61705;46.228;24.812;2023-03-15T09:13:24;96116.47;;;11.79;37.74
51261;BME280;61705;46.228;24.812;2023-03-15T09:16:00;96114.75;;;11.91;37.55
51261;BME280;61705;46.228;24.812;2023-03-15T09:18:28;96110.22;;;12.04;37.20
51261;BME280;61705;46.228;24.812;2023-03-15T09:20:58;96105.38;;;11.87;36.88
51261;BME280;61705;46.228;24.812;2023-03-15T09:23:27;96103.00;;;12.06;37.05
51261;BME280;61705;46.228;24.812;2023-03-15T09:25:54;96096.16;;;12.26;36.32
51261;BME280;61705;46.228;24.812;2023-03-15T09:28:20;96095.94;;;12.29;35.78
51261;BME280;61705;46.228;24.812;2023-03-15T09:30:47;96088.09;;;12.39;35.53
51261;BME280;61705;46.228;24.812;2023-03-15T09:33:15;96083.16;;;12.68;35.58
51261;BME280;61705;46.228;24.812;2023-03-15T09:35:43;96084.38;;;12.75;35.19
51261;BME280;61705;46.228;24.812;2023-03-15T09:38:13;96082.81;;;12.50;35.26
51261;BME280;61705;46.228;24.812;2023-03-15T09:40:41;96072.09;;;12.63;35.60
51261;BME280;61705;46.228;24.812;2023-03-15T09:48:31;96082.81;;;12.50;35.21
51261;BME280;61705;46.228;24.812;2023-03-15T09:53:31;96068.84;;;12.60;35.74
51261;BME280;61705;46.228;24.812;2023-03-15T09:56:15;96077.00;;;12.68;36.03
51261;BME280;61705;46.228;24.812;2023-03-15T09:58:44;96074.88;;;12.62;35.66
51261;BME280;61705;46.228;24.812;2023-03-15T10:01:11;96072.09;;;12.63;35.44
51261;BME280;61705;46.228;24.812;2023-03-15T10:03:48;96068.34;;;12.66;35.03
51261;BME280;61705;46.228;24.812;2023-03-15T10:06:19;96074.72;;;12.74;35.34
51261;BME280;61705;46.228;24.812;2023-03-15T10:08:50;96068.13;;;12.69;35.37
51261;BME280;61705;46.228;24.812;2023-03-15T10:11:28;96065.09;;;12.62;35.69
51261;BME280;61705;46.228;24.812;2023-03-15T10:16:31;96072.69;;;12.55;36.23
51261;BME280;61705;46.228;24.812;2023-03-15T10:19:16;96073.56;;;12.45;36.39
51261;BME280;61705;46.228;24.812;2023-03-15T10:29:41;96075.34;;;12.33;36.57
51261;BME280;61705;46.228;24.812;2023-03-15T10:32:14;96081.59;;;12.32;36.59
51261;BME280;61705;46.228;24.812;2023-03-15T10:34:44;96085.19;;;12.20;36.71
51261;BME280;61705;46.228;24.812;2023-03-15T10:37:13;96077.75;;;12.25;35.80
51261;BME280;61705;46.228;24.812;2023-03-15T10:39:42;96073.91;;;12.29;35.17
51261;BME280;61705;46.228;24.812;2023-03-15T10:42:26;96075.09;;;12.14;35.27
51261;BME280;61705;46.228;24.812;2023-03-15T10:44:55;96072.22;;;12.28;35.47
51261;BME280;61705;46.228;24.812;2023-03-15T10:47:23;96071.72;;;12.34;35.38
51261;BME280;61705;46.228;24.812;2023-03-15T10:49:54;96065.25;;;12.38;35.39
51261;BME280;61705;46.228;24.812;2023-03-15T10:54:51;96058.13;;;12.16;35.15
51261;BME280;61705;46.228;24.812;2023-03-15T10:57:32;96048.97;;;12.09;35.10
51261;BME280;61705;46.228;24.812;2023-03-15T11:00:02;96060.91;;;12.15;35.24
51261;BME280;61705;46.228;24.812;2023-03-15T11:02:49;96056.31;;;12.28;35.18
51261;BME280;61705;46.228;24.812;2023-03-15T11:05:16;96044.53;;;12.32;35.05
51261;BME280;61705;46.228;24.812;2023-03-15T11:08:21;96044.88;;;12.50;34.99
51261;BME280;61705;46.228;24.812;2023-03-15T11:10:40;96054.00;;;12.68;35.02
51261;BME280;61705;46.228;24.812;2023-03-15T11:13:25;96044.34;;;12.78;34.84
51261;BME280;61705;46.228;24.812;2023-03-15T11:15:59;96048.31;;;12.84;34.54
51261;BME280;61705;46.228;24.812;2023-03-15T11:18:31;96032.75;;;12.91;34.44
51261;BME280;61705;46.228;24.812;2023-03-15T11:20:58;96033.81;;;12.99;34.50
51261;BME280;61705;46.228;24.812;2023-03-15T11:23:27;96026.53;;;13.13;34.38
51261;BME280;61705;46.228;24.812;2023-03-15T11:25:55;96018.41;;;13.37;34.08
51261;BME280;61705;46.228;24.812;2023-03-15T11:28:24;96012.63;;;13.52;34.11
51261;BME280;61705;46.228;24.812;2023-03-15T11:30:52;96020.53;;;13.64;33.85
51261;BME280;61705;46.228;24.812;2023-03-15T11:33:33;96015.44;;;13.72;34.01
51261;BME280;61705;46.228;24.812;2023-03-15T11:36:04;96007.97;;;13.87;33.97
51261;BME280;61705;46.228;24.812;2023-03-15T11:38:40;96002.03;;;13.73;33.79
51261;BME280;61705;46.228;24.812;2023-03-15T11:44:07;95986.41;;;13.80;34.20
51261;BME280;61705;46.228;24.812;2023-03-15T11:46:39;95990.16;;;13.98;34.19
51261;BME280;61705;46.228;24.812;2023-03-15T11:49:18;95984.88;;;14.08;34.30
51261;BME280;61705;46.228;24.812;2023-03-15T11:51:54;95980.06;;;14.23;34.11
51261;BME280;61705;46.228;24.812;2023-03-15T11:54:21;95979.06;;;14.24;34.16
51261;BME280;61705;46.228;24.812;2023-03-15T11:56:55;95972.03;;;14.13;34.10
51261;BME280;61705;46.228;24.812;2023-03-15T11:59:29;95973.72;;;14.14;34.16
51261;BME280;61705;46.228;24.812;2023-03-15T12:01:57;95975.28;;;14.17;34.12
51261;BME280;61705;46.228;24.812;2023-03-15T12:06:55;95964.84;;;14.35;33.12
51261;BME280;61705;46.228;24.812;2023-03-15T12:12:05;95987.59;;;14.58;32.73
51261;BME280;61705;46.228;24.812;2023-03-15T12:14:32;95975.28;;;14.57;32.36
51261;BME280;61705;46.228;24.812;2023-03-15T12:19:45;95972.44;;;14.49;33.15
51261;BME280;61705;46.228;24.812;2023-03-15T12:22:19;95963.59;;;14.39;33.04
51261;BME280;61705;46.228;24.812;2023-03-15T12:24:46;95966.28;;;14.49;32.88
51261;BME280;61705;46.228;24.812;2023-03-15T12:27:17;95958.06;;;14.52;33.02
51261;BME280;61705;46.228;24.812;2023-03-15T12:29:47;95954.34;;;14.74;32.90
51261;BME280;61705;46.228;24.812;2023-03-15T12:32:19;95948.72;;;14.77;32.43
51261;BME280;61705;46.228;24.812;2023-03-15T12:34:49;95949.31;;;14.80;31.95
51261;BME280;61705;46.228;24.812;2023-03-15T12:39:44;95941.78;;;15.14;31.24
51261;BME280;61705;46.228;24.812;2023-03-15T12:53:03;95936.44;;;14.85;31.56
51261;BME280;61705;46.228;24.812;2023-03-15T12:55:31;95925.94;;;14.84;31.39
51261;BME280;61705;46.228;24.812;2023-03-15T12:57:58;95921.44;;;14.75;31.40
51261;BME280;61705;46.228;24.812;2023-03-15T13:00:30;95924.81;;;14.67;31.62
51261;BME280;61705;46.228;24.812;2023-03-15T13:03:03;95919.50;;;14.67;31.36
51261;BME280;61705;46.228;24.812;2023-03-15T13:05:39;95914.84;;;14.59;31.03
51261;BME280;61705;46.228;24.812;2023-03-15T13:16:35;95918.81;;;14.94;30.98
51261;BME280;61705;46.228;24.812;2023-03-15T13:21:56;95916.53;;;14.80;31.52
51261;BME280;61705;46.228;24.812;2023-03-15T13:30:47;95951.69;;;14.93;31.84
51261;BME280;61705;46.228;24.812;2023-03-15T13:32:48;95956.84;;;14.75;33.30
51261;BME280;61705;46.228;24.812;2023-03-15T13:35:26;95952.22;;;14.58;33.53
51261;BME280;61705;46.228;24.812;2023-03-15T13:37:59;95946.72;;;14.50;33.56
51261;BME280;61705;46.228;24.812;2023-03-15T13:40:26;95941.13;;;14.53;33.81
51261;BME280;61705;46.228;24.812;2023-03-15T13:42:52;95933.88;;;14.64;33.82
51261;BME280;61705;46.228;24.812;2023-03-15T13:45:21;95945.09;;;14.68;33.58
51261;BME280;61705;46.228;24.812;2023-03-15T13:47:47;95938.50;;;14.72;33.63
51261;BME280;61705;46.228;24.812;2023-03-15T13:50:14;95938.22;;;14.65;33.04
51261;BME280;61705;46.228;24.812;2023-03-15T13:52:42;95941.41;;;14.59;32.60
51261;BME280;61705;46.228;24.812;2023-03-15T13:55:12;95936.09;;;14.50;32.36
51261;BME280;61705;46.228;24.812;2023-03-15T13:57:40;95929.13;;;14.58;32.84
51261;BME280;61705;46.228;24.812;2023-03-15T14:00:08;95935.53;;;14.56;33.46
51261;BME280;61705;46.228;24.812;2023-03-15T14:02:43;95923.53;;;14.61;33.60
51261;BME280;61705;46.228;24.812;2023-03-15T14:05:17;95929.13;;;14.58;33.56
51261;BME280;61705;46.228;24.812;2023-03-15T14:07:55;95930.22;;;14.56;33.79
51261;BME280;61705;46.228;24.812;2023-03-15T14:10:41;95928.97;;;14.50;34.40
51261;BME280;61705;46.228;24.812;2023-03-15T14:13:29;95933.53;;;14.48;34.58
51261;BME280;61705;46.228;24.812;2023-03-15T14:16:04;95929.38;;;14.55;34.45
51261;BME280;61705;46.228;24.812;2023-03-15T14:18:37;95929.81;;;14.51;34.67
51261;BME280;61705;46.228;24.812;2023-03-15T14:23:31;95928.88;;;14.31;34.94